sensor_id;sensor_type;location;lat;lon;timestamp;pressure;altitude;pressure_sealevel;temperature;humidity
66547;BME280;53400;50.364;14.874;2023-03-14T00:02:01;96928.47;;;7.84;99.14
66547;BME280;53400;50.364;14.874;2023-03-14T00:04:27;96909.31;;;7.46;100.00
66547;BME280;53400;50.364;14.874;2023-03-14T00:06:52;96900.50;;;7.20;100.00
66547;BME280;53400;50.364;14.874;2023-03-14T00:09:20;96882.41;;;7.38;100.00
66547;BME280;53400;50.364;14.874;2023-03-14T00:11:46;96948.75;;;7.65;100.00
66547;BME280;53400;50.364;14.874;2023-03-14T00:14:11;96961.53;;;7.68;100.00
66547;BME280;53400;50.364;14.874;2023-03-14T00:16:38;96971.38;;;7.47;100.00
66547;BME280;53400;50.364;14.874;2023-03-14T00:19:03;96965.50;;;7.34;100.00
66547;BME280;53400;50.364;14.874;2023-03-14T00:21:29;96975.84;;;7.10;100.00
66547;BME280;53400;50.364;14.874;2023-03-14T00:23:55;96983.31;;;7.24;100.00
66547;BME280;53400;50.364;14.874;2023-03-14T00:26:22;96988.72;;;7.65;100.00
66547;BME280;53400;50.364;14.874;2023-03-14T00:28:51;96995.09;;;7.58;100.00
66547;BME280;53400;50.364;14.874;2023-03-14T00:31:17;96991.63;;;7.53;100.00
66547;BME280;53400;50.364;14.874;2023-03-14T00:33:44;96990.59;;;7.64;100.00
66547;BME280;53400;50.364;14.874;2023-03-14T00:36:12;96988.44;;;7.87;100.00
66547;BME280;53400;50.364;14.874;2023-03-14T00:38:39;96972.19;;;7.93;100.00
66547;BME280;53400;50.364;14.874;2023-03-14T00:41:06;96974.31;;;7.86;100.00
66547;BME280;53400;50.364;14.874;2023-03-14T00:43:34;96957.00;;;7.68;100.00
66547;BME280;53400;50.364;14.874;2023-03-14T00:46:01;96956.19;;;7.52;100.00
66547;BME280;53400;50.364;14.874;2023-03-14T00:48:26;96940.47;;;7.51;100.00
66547;BME280;53400;50.364;14.874;2023-03-14T00:50:52;96926.88;;;7.22;100.00
66547;BME280;53400;50.364;14.874;2023-03-14T00:53:18;96918.31;;;6.89;100.00
66547;BME280;53400;50.364;14.874;2023-03-14T00:55:44;96914.28;;;6.81;100.00
66547;BME280;53400;50.364;14.874;2023-03-14T00:58:11;96889.00;;;6.74;100.00
66547;BME280;53400;50.364;14.874;2023-03-14T01:00:39;96894.53;;;6.62;100.00
66547;BME280;53400;50.364;14.874;2023-03-14T01:03:05;96886.06;;;6.80;100.00
66547;BME280;53400;50.364;14.874;2023-03-14T01:05:32;96885.28;;;6.70;100.00
66547;BME280;53400;50.364;14.874;2023-03-14T01:07:58;96875.16;;;6.77;100.00
66547;BME280;53400;50.364;14.874;2023-03-14T01:10:24;96816.03;;;6.44;100.00
66547;BME280;53400;50.364;14.874;2023-03-14T01:12:50;96822.97;;;6.55;100.00
66547;BME280;53400;50.364;14.874;2023-03-14T01:15:16;96798.22;;;6.50;100.00
66547;BME280;53400;50.364;14.874;2023-03-14T01:17:43;96800.63;;;6.46;100.00
66547;BME280;53400;50.364;14.874;2023-03-14T01:20:11;96792.13;;;6.49;100.00
66547;BME280;53400;50.364;14.874;2023-03-14T01:22:38;96782.81;;;6.62;100.00
66547;BME280;53400;50.364;14.874;2023-03-14T01:25:08;96784.94;;;6.50;100.00
66547;BME280;53400;50.364;14.874;2023-03-14T01:27:35;96772.97;;;6.52;100.00
66547;BME280;53400;50.364;14.874;2023-03-14T01:30:01;96760.22;;;6.54;100.00
66547;BME280;53400;50.364;14.874;2023-03-14T01:32:27;96767.13;;;6.55;100.00
66547;BME280;53400;50.364;14.874;2023-03-14T01:34:55;96764.97;;;6.47;100.00
66547;BME280;53400;50.364;14.874;2023-03-14T01:37:20;96776.97;;;6.50;100.00
66547;BME280;53400;50.364;14.874;2023-03-14T01:39:46;96768.16;;;6.44;100.00
66547;BME280;53400;50.364;14.874;2023-03-14T01:42:12;96784.13;;;6.49;100.00
66547;BME280;53400;50.364;14.874;2023-03-14T01:44:57;96774.81;;;6.41;100.00
66547;BME280;53400;50.364;14.874;2023-03-14T01:47:23;96779.28;;;6.20;100.00
66547;BME280;53400;50.364;14.874;2023-03-14T01:49:52;96772.13;;;6.26;100.00
66547;BME280;53400;50.364;14.874;2023-03-14T01:52:23;96755.38;;;6.26;100.00
66547;BME280;53400;50.364;14.874;2023-03-14T01:54:53;96773.75;;;6.37;100.00
66547;BME280;53400;50.364;14.874;2023-03-14T01:57:21;96768.16;;;6.34;100.00
66547;BME280;53400;50.364;14.874;2023-03-14T01:59:52;96752.69;;;6.10;100.00
66547;BME280;53400;50.364;14.874;2023-03-14T02:02:19;96744.13;;;5.98;100.00
66547;BME280;53400;50.364;14.874;2023-03-14T02:04:46;96759.31;;;6.08;100.00
66547;BME280;53400;50.364;14.874;2023-03-14T02:07:14;96768.94;;;6.24;100.00
66547;BME280;53400;50.364;14.874;2023-03-14T02:09:42;96773.47;;;6.39;100.00
66547;BME280;53400;50.364;14.874;2023-03-14T02:12:11;96758.31;;;6.34;100.00
66547;BME280;53400;50.364;14.874;2023-03-14T02:14:39;96768.72;;;6.61;100.00
66547;BME280;53400;50.364;14.874;2023-03-14T02:17:08;96764.22;;;6.62;100.00
66547;BME280;53400;50.364;14.874;2023-03-14T02:19:50;96771.41;;;6.61;100.00
66547;BME280;53400;50.364;14.874;2023-03-14T02:22:19;96788.69;;;6.69;100.00
66547;BME280;53400;50.364;14.874;2023-03-14T02:24:55;96801.94;;;6.54;100.00
66547;BME280;53400;50.364;14.874;2023-03-14T02:27:25;96815.25;;;6.43;100.00
66547;BME280;53400;50.364;14.874;2023-03-14T02:29:54;96816.34;;;6.58;100.00
66547;BME280;53400;50.364;14.874;2023-03-14T02:32:23;96814.47;;;6.69;100.00
66547;BME280;53400;50.364;14.874;2023-03-14T02:34:53;96800.94;;;6.70;100.00
66547;BME280;53400;50.364;14.874;2023-03-14T02:37:22;96799.31;;;6.69;100.00
66547;BME280;53400;50.364;14.874;2023-03-14T02:39:49;96779.91;;;6.69;100.00
66547;BME280;53400;50.364;14.874;2023-03-14T02:42:15;96778.06;;;6.64;100.00
66547;BME280;53400;50.364;14.874;2023-03-14T02:44:51;96785.25;;;6.89;100.00
66547;BME280;53400;50.364;14.874;2023-03-14T02:47:19;96774.59;;;6.79;100.00
66547;BME280;53400;50.364;14.874;2023-03-14T02:49:46;96758.34;;;6.96;100.00
66547;BME280;53400;50.364;14.874;2023-03-14T02:52:12;96745.59;;;6.82;100.00
66547;BME280;53400;50.364;14.874;2023-03-14T02:54:38;96737.63;;;6.77;100.00
66547;BME280;53400;50.364;14.874;2023-03-14T02:57:04;96750.09;;;6.72;100.00
66547;BME280;53400;50.364;14.874;2023-03-14T02:59:29;96755.44;;;6.66;100.00
66547;BME280;53400;50.364;14.874;2023-03-14T03:01:57;96757.56;;;6.64;100.00
66547;BME280;53400;50.364;14.874;2023-03-14T03:04:25;96747.72;;;6.75;100.00
66547;BME280;53400;50.364;14.874;2023-03-14T03:06:50;96746.66;;;6.76;100.00
66547;BME280;53400;50.364;14.874;2023-03-14T03:09:16;96739.22;;;6.68;100.00
66547;BME280;53400;50.364;14.874;2023-03-14T03:11:42;96732.81;;;6.49;100.00
66547;BME280;53400;50.364;14.874;2023-03-14T03:14:08;96715.25;;;6.37;100.00
66547;BME280;53400;50.364;14.874;2023-03-14T03:16:34;96726.38;;;6.09;100.00
66547;BME280;53400;50.364;14.874;2023-03-14T03:19:01;96709.81;;;5.91;100.00
66547;BME280;53400;50.364;14.874;2023-03-14T03:21:27;96703.25;;;6.09;100.00
66547;BME280;53400;50.364;14.874;2023-03-14T03:23:53;96702.69;;;5.97;100.00
66547;BME280;53400;50.364;14.874;2023-03-14T03:26:18;96692.53;;;5.79;100.00
66547;BME280;53400;50.364;14.874;2023-03-14T03:28:44;96672.25;;;5.62;100.00
66547;BME280;53400;50.364;14.874;2023-03-14T03:31:11;96677.28;;;5.48;100.00
66547;BME280;53400;50.364;14.874;2023-03-14T03:33:38;96681.84;;;5.68;100.00
66547;BME280;53400;50.364;14.874;2023-03-14T03:36:06;96695.94;;;5.74;100.00
66547;BME280;53400;50.364;14.874;2023-03-14T03:38:33;96715.13;;;5.91;100.00
66547;BME280;53400;50.364;14.874;2023-03-14T03:41:01;96720.25;;;6.13;100.00
66547;BME280;53400;50.364;14.874;2023-03-14T03:43:27;96711.00;;;6.21;100.00
66547;BME280;53400;50.364;14.874;2023-03-14T03:45:53;96712.88;;;6.46;100.00
66547;BME280;53400;50.364;14.874;2023-03-14T03:48:19;96712.06;;;6.56;100.00
66547;BME280;53400;50.364;14.874;2023-03-14T03:50:45;96702.75;;;6.53;100.00
66547;BME280;53400;50.364;14.874;2023-03-14T03:53:12;96701.94;;;6.22;100.00
66547;BME280;53400;50.364;14.874;2023-03-14T03:55:40;96707.00;;;6.29;100.00
66547;BME280;53400;50.364;14.874;2023-03-14T03:58:06;96702.50;;;6.39;100.00
66547;BME280;53400;50.364;14.874;2023-03-14T04:00:32;96703.56;;;6.49;100.00
66547;BME280;53400;50.364;14.874;2023-03-14T04:02:58;96711.53;;;6.59;100.00
66547;BME280;53400;50.364;14.874;2023-03-14T04:05:25;96703.28;;;6.50;100.00
66547;BME280;53400;50.364;14.874;2023-03-14T04:07:51;96708.84;;;6.28;100.00
66547;BME280;53400;50.364;14.874;2023-03-14T04:10:18;96698.44;;;6.11;100.00
66547;BME280;53400;50.364;14.874;2023-03-14T04:12:44;96695.03;;;6.41;100.00
66547;BME280;53400;50.364;14.874;2023-03-14T04:15:10;96690.25;;;6.43;100.00
66547;BME280;53400;50.364;14.874;2023-03-14T04:17:36;96702.72;;;6.33;100.00
66547;BME280;53400;50.364;14.874;2023-03-14T04:20:03;96707.75;;;6.14;100.00
66547;BME280;53400;50.364;14.874;2023-03-14T04:22:30;96718.94;;;6.26;100.00
66547;BME280;53400;50.364;14.874;2023-03-14T04:24:56;96723.47;;;6.15;100.00
66547;BME280;53400;50.364;14.874;2023-03-14T04:27:23;96721.66;;;6.52;100.00
66547;BME280;53400;50.364;14.874;2023-03-14T04:29:49;96709.63;;;6.24;100.00
66547;BME280;53400;50.364;14.874;2023-03-14T04:32:15;96716.25;;;6.11;100.00
66547;BME280;53400;50.364;14.874;2023-03-14T04:34:41;96724.53;;;6.30;100.00
66547;BME280;53400;50.364;14.874;2023-03-14T04:37:07;96708.34;;;6.47;100.00
66547;BME280;53400;50.364;14.874;2023-03-14T04:39:32;96700.34;;;6.41;100.00
66547;BME280;53400;50.364;14.874;2023-03-14T04:41:59;96697.19;;;6.50;100.00
66547;BME280;53400;50.364;14.874;2023-03-14T04:44:26;96698.25;;;6.33;100.00
66547;BME280;53400;50.364;14.874;2023-03-14T04:46:52;96690.50;;;6.32;100.00
66547;BME280;53400;50.364;14.874;2023-03-14T04:49:18;96682.25;;;6.23;100.00
66547;BME280;53400;50.364;14.874;2023-03-14T04:51:44;96693.72;;;6.54;100.00
66547;BME280;53400;50.364;14.874;2023-03-14T04:54:10;96682.53;;;6.62;100.00
66547;BME280;53400;50.364;14.874;2023-03-14T04:56:36;96670.03;;;6.63;99.82
66547;BME280;53400;50.364;14.874;2023-03-14T04:59:05;96688.41;;;6.59;100.00
66547;BME280;53400;50.364;14.874;2023-03-14T05:01:33;96696.13;;;6.76;98.59
66547;BME280;53400;50.364;14.874;2023-03-14T05:03:58;96693.44;;;6.86;97.62
66547;BME280;53400;50.364;14.874;2023-03-14T05:06:24;96695.03;;;6.77;97.41
66547;BME280;53400;50.364;14.874;2023-03-14T05:08:50;96698.38;;;7.39;100.00
66547;BME280;53400;50.364;14.874;2023-03-14T05:11:16;96695.00;;;7.03;96.37
66547;BME280;53400;50.364;14.874;2023-03-14T05:13:42;96705.13;;;7.01;96.21
66547;BME280;53400;50.364;14.874;2023-03-14T05:16:10;96705.41;;;6.94;98.06
66547;BME280;53400;50.364;14.874;2023-03-14T05:18:37;96714.72;;;6.92;97.93
66547;BME280;53400;50.364;14.874;2023-03-14T05:21:04;96706.50;;;6.68;98.93
66547;BME280;53400;50.364;14.874;2023-03-14T05:23:29;96704.38;;;6.70;98.76
66547;BME280;53400;50.364;14.874;2023-03-14T05:25:56;96701.16;;;6.47;100.00
66547;BME280;53400;50.364;14.874;2023-03-14T05:28:21;96691.56;;;6.26;100.00
66547;BME280;53400;50.364;14.874;2023-03-14T05:30:47;96674.28;;;6.13;100.00
66547;BME280;53400;50.364;14.874;2023-03-14T05:33:13;96668.97;;;6.28;100.00
66547;BME280;53400;50.364;14.874;2023-03-14T05:35:41;96678.00;;;6.32;100.00
66547;BME280;53400;50.364;14.874;2023-03-14T05:38:07;96667.66;;;6.31;100.00
66547;BME280;53400;50.364;14.874;2023-03-14T05:40:34;96661.56;;;6.46;100.00
66547;BME280;53400;50.364;14.874;2023-03-14T05:42:59;96665.81;;;6.52;100.00
66547;BME280;53400;50.364;14.874;2023-03-14T05:45:25;96660.47;;;6.67;100.00
66547;BME280;53400;50.364;14.874;2023-03-14T05:47:51;96658.34;;;6.79;100.00
66547;BME280;53400;50.364;14.874;2023-03-14T05:50:17;96662.84;;;6.89;100.00
66547;BME280;53400;50.364;14.874;2023-03-14T05:52:44;96657.78;;;6.98;100.00
66547;BME280;53400;50.364;14.874;2023-03-14T05:55:10;96654.81;;;6.99;100.00
66547;BME280;53400;50.364;14.874;2023-03-14T05:57:36;96654.00;;;7.09;100.00
66547;BME280;53400;50.364;14.874;2023-03-14T06:00:03;96659.56;;;7.18;100.00
66547;BME280;53400;50.364;14.874;2023-03-14T06:02:28;96680.31;;;7.31;100.00
66547;BME280;53400;50.364;14.874;2023-03-14T06:04:54;96668.09;;;7.20;100.00
66547;BME280;53400;50.364;14.874;2023-03-14T06:07:20;96677.44;;;7.02;100.00
66547;BME280;53400;50.364;14.874;2023-03-14T06:09:48;96668.19;;;6.48;100.00
66547;BME280;53400;50.364;14.874;2023-03-14T06:12:14;96666.31;;;6.23;100.00
66547;BME280;53400;50.364;14.874;2023-03-14T06:14:40;96665.22;;;6.04;100.00
66547;BME280;53400;50.364;14.874;2023-03-14T06:17:06;96667.91;;;6.09;100.00
66547;BME280;53400;50.364;14.874;2023-03-14T06:19:31;96672.69;;;5.96;100.00
66547;BME280;53400;50.364;14.874;2023-03-14T06:21:57;96668.97;;;6.13;100.00
66547;BME280;53400;50.364;14.874;2023-03-14T06:24:23;96676.69;;;6.09;100.00
66547;BME280;53400;50.364;14.874;2023-03-14T06:26:51;96680.94;;;6.15;100.00
66547;BME280;53400;50.364;14.874;2023-03-14T06:29:17;96671.66;;;6.33;100.00
66547;BME280;53400;50.364;14.874;2023-03-14T06:31:43;96676.97;;;6.64;100.00
66547;BME280;53400;50.364;14.874;2023-03-14T06:34:09;96672.69;;;6.83;100.00
66547;BME280;53400;50.364;14.874;2023-03-14T06:36:35;96668.16;;;6.89;100.00
66547;BME280;53400;50.364;14.874;2023-03-14T06:39:01;96677.94;;;7.09;100.00
66547;BME280;53400;50.364;14.874;2023-03-14T06:41:26;96687.25;;;7.17;100.00
66547;BME280;53400;50.364;14.874;2023-03-14T06:43:54;96698.72;;;7.22;100.00
66547;BME280;53400;50.364;14.874;2023-03-14T06:46:20;96686.44;;;7.31;100.00
66547;BME280;53400;50.364;14.874;2023-03-14T06:48:46;96705.00;;;7.52;100.00
66547;BME280;53400;50.364;14.874;2023-03-14T06:51:12;96708.66;;;7.66;100.00
66547;BME280;53400;50.364;14.874;2023-03-14T06:53:38;96715.56;;;7.72;100.00
66547;BME280;53400;50.364;14.874;2023-03-14T06:56:04;96720.91;;;7.77;100.00
66547;BME280;53400;50.364;14.874;2023-03-14T06:58:30;96717.06;;;7.99;100.00
66547;BME280;53400;50.364;14.874;2023-03-14T07:00:57;96713.88;;;7.97;100.00
66547;BME280;53400;50.364;14.874;2023-03-14T07:03:24;96709.63;;;7.96;100.00
66547;BME280;53400;50.364;14.874;2023-03-14T07:05:50;96713.78;;;8.12;100.00
66547;BME280;53400;50.364;14.874;2023-03-14T07:08:16;96710.00;;;8.23;100.00
66547;BME280;53400;50.364;14.874;2023-03-14T07:10:42;96708.81;;;8.45;100.00
66547;BME280;53400;50.364;14.874;2023-03-14T07:13:08;96711.50;;;8.40;100.00
66547;BME280;53400;50.364;14.874;2023-03-14T07:15:34;96698.13;;;8.45;100.00
66547;BME280;53400;50.364;14.874;2023-03-14T07:18:02;96707.09;;;8.64;100.00
66547;BME280;53400;50.364;14.874;2023-03-14T07:20:28;96713.78;;;8.62;100.00
66547;BME280;53400;50.364;14.874;2023-03-14T07:22:56;96719.69;;;8.54;100.00
66547;BME280;53400;50.364;14.874;2023-03-14T07:25:22;96723.78;;;8.75;100.00
66547;BME280;53400;50.364;14.874;2023-03-14T07:27:48;96720.84;;;8.77;100.00
66547;BME280;53400;50.364;14.874;2023-03-14T07:30:14;96730.34;;;8.88;100.00
66547;BME280;53400;50.364;14.874;2023-03-14T07:32:40;96736.47;;;8.93;100.00
66547;BME280;53400;50.364;14.874;2023-03-14T07:35:08;96726.94;;;8.82;100.00
66547;BME280;53400;50.364;14.874;2023-03-14T07:37:34;96729.34;;;8.84;100.00
66547;BME280;53400;50.364;14.874;2023-03-14T07:40:00;96722.66;;;8.52;100.00
66547;BME280;53400;50.364;14.874;2023-03-14T07:42:26;96724.34;;;8.33;100.00
66547;BME280;53400;50.364;14.874;2023-03-14T07:44:52;96721.06;;;8.01;100.00
66547;BME280;53400;50.364;14.874;2023-03-14T07:47:18;96721.03;;;8.07;100.00
66547;BME280;53400;50.364;14.874;2023-03-14T07:49:44;96725.84;;;8.04;100.00
66547;BME280;53400;50.364;14.874;2023-03-14T07:52:12;96719.47;;;8.00;100.00
66547;BME280;53400;50.364;14.874;2023-03-14T07:54:38;96718.88;;;8.09;100.00
66547;BME280;53400;50.364;14.874;2023-03-14T07:57:04;96705.09;;;8.36;100.00
66547;BME280;53400;50.364;14.874;2023-03-14T07:59:29;96711.91;;;8.57;100.00
66547;BME280;53400;50.364;14.874;2023-03-14T08:01:55;96701.06;;;8.83;100.00
66547;BME280;53400;50.364;14.874;2023-03-14T08:04:21;96697.34;;;9.08;100.00
66547;BME280;53400;50.364;14.874;2023-03-14T08:06:50;96694.00;;;9.21;100.00
66547;BME280;53400;50.364;14.874;2023-03-14T08:09:18;96690.38;;;9.36;100.00
66547;BME280;53400;50.364;14.874;2023-03-14T08:11:44;96684.69;;;9.42;100.00
66547;BME280;53400;50.364;14.874;2023-03-14T08:14:10;96691.66;;;9.44;100.00
66547;BME280;53400;50.364;14.874;2023-03-14T08:16:37;96691.75;;;9.57;100.00
66547;BME280;53400;50.364;14.874;2023-03-14T08:19:03;96698.91;;;9.62;100.00
66547;BME280;53400;50.364;14.874;2023-03-14T08:21:30;96690.03;;;9.67;100.00
66547;BME280;53400;50.364;14.874;2023-03-14T08:23:56;96692.66;;;9.72;100.00
66547;BME280;53400;50.364;14.874;2023-03-14T08:26:23;96697.66;;;9.97;100.00
66547;BME280;53400;50.364;14.874;2023-03-14T08:28:49;96699.53;;;10.16;99.57
66547;BME280;53400;50.364;14.874;2023-03-14T08:31:15;96694.00;;;10.31;98.16
66547;BME280;53400;50.364;14.874;2023-03-14T08:33:41;96695.28;;;10.52;98.69
66547;BME280;53400;50.364;14.874;2023-03-14T08:36:07;96691.38;;;10.64;96.75
66547;BME280;53400;50.364;14.874;2023-03-14T08:38:33;96697.25;;;10.66;96.62
66547;BME280;53400;50.364;14.874;2023-03-14T08:41:01;96701.72;;;10.70;96.89
66547;BME280;53400;50.364;14.874;2023-03-14T08:43:29;96703.34;;;10.85;95.72
66547;BME280;53400;50.364;14.874;2023-03-14T08:45:57;96699.28;;;10.88;93.85
66547;BME280;53400;50.364;14.874;2023-03-14T08:48:24;96701.97;;;11.01;95.24
66547;BME280;53400;50.364;14.874;2023-03-14T08:50:50;96709.56;;;11.13;94.59
66547;BME280;53400;50.364;14.874;2023-03-14T08:53:15;96708.56;;;11.09;94.75
66547;BME280;53400;50.364;14.874;2023-03-14T08:55:41;96714.25;;;11.21;94.98
66547;BME280;53400;50.364;14.874;2023-03-14T08:58:07;96713.38;;;11.26;94.23
66547;BME280;53400;50.364;14.874;2023-03-14T09:00:35;96712.94;;;11.19;92.65
66547;BME280;53400;50.364;14.874;2023-03-14T09:03:01;96714.28;;;11.35;92.46
66547;BME280;53400;50.364;14.874;2023-03-14T09:05:27;96717.63;;;11.27;92.31
66547;BME280;53400;50.364;14.874;2023-03-14T09:07:53;96718.13;;;11.29;91.88
66547;BME280;53400;50.364;14.874;2023-03-14T09:10:19;96721.81;;;11.33;88.53
66547;BME280;53400;50.364;14.874;2023-03-14T09:12:45;96714.66;;;11.42;86.81
66547;BME280;53400;50.364;14.874;2023-03-14T09:15:11;96712.09;;;11.65;86.74
66547;BME280;53400;50.364;14.874;2023-03-14T09:17:38;96706.25;;;11.63;84.50
66547;BME280;53400;50.364;14.874;2023-03-14T09:20:05;96710.88;;;11.71;84.82
66547;BME280;53400;50.364;14.874;2023-03-14T09:22:32;96713.88;;;11.56;84.34
66547;BME280;53400;50.364;14.874;2023-03-14T09:24:59;96714.69;;;11.70;85.08
66547;BME280;53400;50.364;14.874;2023-03-14T09:27:24;96719.16;;;11.88;85.34
66547;BME280;53400;50.364;14.874;2023-03-14T09:29:50;96722.53;;;11.66;82.76
66547;BME280;53400;50.364;14.874;2023-03-14T09:32:16;96712.88;;;11.52;82.82
66547;BME280;53400;50.364;14.874;2023-03-14T09:34:44;96727.69;;;11.63;81.92
66547;BME280;53400;50.364;14.874;2023-03-14T09:37:09;96724.50;;;11.33;80.93
66547;BME280;53400;50.364;14.874;2023-03-14T09:39:36;96727.09;;;11.38;81.84
66547;BME280;53400;50.364;14.874;2023-03-14T09:42:05;96706.44;;;11.66;81.86
66547;BME280;53400;50.364;14.874;2023-03-14T09:44:34;96724.72;;;11.51;82.86
66547;BME280;53400;50.364;14.874;2023-03-14T09:47:04;96711.00;;;11.52;79.15
66547;BME280;53400;50.364;14.874;2023-03-14T09:49:33;96723.81;;;11.69;80.88
66547;BME280;53400;50.364;14.874;2023-03-14T09:52:05;96707.63;;;11.74;79.98
66547;BME280;53400;50.364;14.874;2023-03-14T09:54:35;96718.75;;;11.81;80.66
66547;BME280;53400;50.364;14.874;2023-03-14T09:57:02;96720.34;;;11.82;82.58
66547;BME280;53400;50.364;14.874;2023-03-14T09:59:29;96708.03;;;11.81;81.02
66547;BME280;53400;50.364;14.874;2023-03-14T10:01:58;96707.13;;;11.58;81.58
66547;BME280;53400;50.364;14.874;2023-03-14T10:04:26;96698.09;;;11.68;77.28
66547;BME280;53400;50.364;14.874;2023-03-14T10:06:54;96697.47;;;11.71;79.15
66547;BME280;53400;50.364;14.874;2023-03-14T10:09:23;96701.06;;;11.80;78.99
66547;BME280;53400;50.364;14.874;2023-03-14T10:11:54;96702.56;;;11.73;78.08
66547;BME280;53400;50.364;14.874;2023-03-14T10:14:31;96716.06;;;11.67;77.92
66547;BME280;53400;50.364;14.874;2023-03-14T10:17:05;96714.47;;;11.66;79.00
66547;BME280;53400;50.364;14.874;2023-03-14T10:19:32;96719.34;;;11.78;79.00
66547;BME280;53400;50.364;14.874;2023-03-14T10:22:02;96712.09;;;11.65;79.71
66547;BME280;53400;50.364;14.874;2023-03-14T10:24:31;96703.34;;;11.73;77.31
66547;BME280;53400;50.364;14.874;2023-03-14T10:26:59;96702.75;;;11.48;78.30
66547;BME280;53400;50.364;14.874;2023-03-14T10:29:28;96709.72;;;11.63;77.58
66547;BME280;53400;50.364;14.874;2023-03-14T10:31:57;96711.59;;;11.63;79.53
66547;BME280;53400;50.364;14.874;2023-03-14T10:34:26;96702.88;;;11.57;78.80
66547;BME280;53400;50.364;14.874;2023-03-14T10:36:53;96698.28;;;11.58;78.71
66547;BME280;53400;50.364;14.874;2023-03-14T10:39:40;96697.78;;;11.56;78.55
66547;BME280;53400;50.364;14.874;2023-03-14T10:42:15;96694.19;;;11.74;76.79
66547;BME280;53400;50.364;14.874;2023-03-14T10:44:43;96695.34;;;11.87;77.89
66547;BME280;53400;50.364;14.874;2023-03-14T10:47:16;96683.78;;;12.00;77.17
66547;BME280;53400;50.364;14.874;2023-03-14T10:49:44;96687.53;;;11.71;77.10
66547;BME280;53400;50.364;14.874;2023-03-14T10:52:17;96691.16;;;11.81;77.64
66547;BME280;53400;50.364;14.874;2023-03-14T10:54:48;96688.75;;;11.79;78.39
66547;BME280;53400;50.364;14.874;2023-03-14T10:57:14;96691.53;;;11.74;78.53
66547;BME280;53400;50.364;14.874;2023-03-14T10:59:42;96698.22;;;11.90;77.61
66547;BME280;53400;50.364;14.874;2023-03-14T11:02:22;96691.50;;;12.02;77.85
66547;BME280;53400;50.364;14.874;2023-03-14T11:05:02;96695.69;;;11.80;77.38
66547;BME280;53400;50.364;14.874;2023-03-14T11:07:33;96700.75;;;11.96;77.33
66547;BME280;53400;50.364;14.874;2023-03-14T11:10:10;96687.06;;;11.97;76.90
66547;BME280;53400;50.364;14.874;2023-03-14T11:12:48;96695.63;;;11.99;76.18
66547;BME280;53400;50.364;14.874;2023-03-14T11:15:23;96700.97;;;11.99;76.72
66547;BME280;53400;50.364;14.874;2023-03-14T11:18:13;96693.03;;;11.66;76.44
66547;BME280;53400;50.364;14.874;2023-03-14T11:20:48;96699.28;;;11.76;77.52
66547;BME280;53400;50.364;14.874;2023-03-14T11:23:18;96692.72;;;11.68;75.99
66547;BME280;53400;50.364;14.874;2023-03-14T11:25:54;96699.47;;;11.79;75.83
66547;BME280;53400;50.364;14.874;2023-03-14T11:28:26;96700.38;;;11.88;76.65
66547;BME280;53400;50.364;14.874;2023-03-14T11:31:04;96700.19;;;11.85;77.35
66547;BME280;53400;50.364;14.874;2023-03-14T11:33:37;96700.69;;;11.87;77.03
66547;BME280;53400;50.364;14.874;2023-03-14T11:36:06;96697.88;;;11.64;76.79
66547;BME280;53400;50.364;14.874;2023-03-14T11:38:37;96694.94;;;11.66;77.88
66547;BME280;53400;50.364;14.874;2023-03-14T11:41:10;96688.75;;;11.79;76.15
66547;BME280;53400;50.364;14.874;2023-03-14T11:43:40;96695.41;;;11.82;75.73
66547;BME280;53400;50.364;14.874;2023-03-14T11:46:11;96688.47;;;11.67;76.36
66547;BME280;53400;50.364;14.874;2023-03-14T11:48:43;96680.78;;;11.74;78.11
66547;BME280;53400;50.364;14.874;2023-03-14T11:51:16;96698.69;;;11.65;76.18
66547;BME280;53400;50.364;14.874;2023-03-14T11:53:57;96689.03;;;11.50;78.53
66547;BME280;53400;50.364;14.874;2023-03-14T11:56:31;96693.22;;;11.56;77.09
66547;BME280;53400;50.364;14.874;2023-03-14T11:59:02;96691.34;;;11.70;76.02
66547;BME280;53400;50.364;14.874;2023-03-14T12:01:36;96694.44;;;11.78;76.99
66547;BME280;53400;50.364;14.874;2023-03-14T12:04:11;96689.34;;;11.76;76.57
66547;BME280;53400;50.364;14.874;2023-03-14T12:06:47;96682.22;;;11.85;76.04
66547;BME280;53400;50.364;14.874;2023-03-14T12:09:15;96685.88;;;11.89;78.12
66547;BME280;53400;50.364;14.874;2023-03-14T12:11:47;96686.75;;;11.99;77.44
66547;BME280;53400;50.364;14.874;2023-03-14T12:14:22;96683.09;;;11.94;76.62
66547;BME280;53400;50.364;14.874;2023-03-14T12:16:50;96678.44;;;11.73;76.13
66547;BME280;53400;50.364;14.874;2023-03-14T12:19:28;96692.72;;;11.68;76.32
66547;BME280;53400;50.364;14.874;2023-03-14T12:21:56;96676.94;;;11.53;77.85
66547;BME280;53400;50.364;14.874;2023-03-14T12:24:25;96680.63;;;11.57;77.91
66547;BME280;53400;50.364;14.874;2023-03-14T12:26:55;96679.13;;;11.51;78.82
66547;BME280;53400;50.364;14.874;2023-03-14T12:29:21;96687.19;;;11.51;77.39
66547;BME280;53400;50.364;14.874;2023-03-14T12:31:48;96683.31;;;11.57;76.93
66547;BME280;53400;50.364;14.874;2023-03-14T12:34:29;96678.34;;;11.36;78.81
66547;BME280;53400;50.364;14.874;2023-03-14T12:37:04;96675.16;;;11.48;77.44
66547;BME280;53400;50.364;14.874;2023-03-14T12:39:37;96669.09;;;11.42;76.86
66547;BME280;53400;50.364;14.874;2023-03-14T12:42:17;96666.81;;;11.36;76.84
66547;BME280;53400;50.364;14.874;2023-03-14T12:44:47;96654.81;;;11.33;77.93
66547;BME280;53400;50.364;14.874;2023-03-14T12:47:41;96665.91;;;11.40;76.34
66547;BME280;53400;50.364;14.874;2023-03-14T12:50:19;96661.34;;;11.55;77.68
66547;BME280;53400;50.364;14.874;2023-03-14T12:53:06;96648.25;;;11.67;77.13
66547;BME280;53400;50.364;14.874;2023-03-14T12:55:40;96655.09;;;11.73;76.79